Raytheon Technologies Corporation (RTX)

Exchange NYSE
94.81


Currency in USD (Disclaimer)
Volume:
Day's Range:

RTX Insider Trading

Transaction Date Reporting Name Relationship Shrs. Owned Type Acq./Disp. Shrs. Transacted Price(USD) Amount(USD) SEC Filing
2022-04-27 Winnefeld James A Jr director 12,611.5141 A-Award A 3,363.1162 99.61 335,000.00
2022-04-27 Winnefeld James A Jr director 7,700.0 P-Purchase A 200.0 99.00 19,800.00
2022-04-25 Atkinson Tracy A director 8,266.089 A-Award A 2,198.5744 99.61 219,000.00
2022-04-25 Harris Bernard A Jr director 4,625.2665 A-Award A 2,047.9872 99.61 204,000.00
2022-04-25 Oliver George director 6,984.2573 A-Award A 1,867.2824 99.61 186,000.00
2022-04-25 Ortberg Robert Kelly director 4,217.1549 A-Award A 1,867.2824 99.61 186,000.00
2022-04-25 O'Sullivan Margaret L. director 11,144.3305 A-Award A 1,867.2824 99.61 186,000.00
2022-04-25 Paliwal Dinesh C director 14,747.9012 A-Award A 3,915.2696 99.61 390,000.00
2022-04-25 Pawlikowski Ellen M director 7,683.4378 A-Award A 2,047.9872 99.61 204,000.00
2022-04-25 Ramos Denise L director 16,270.1927 A-Award A 3,413.3119 99.61 340,000.00
2022-04-25 Reynolds Fredric G director 15,201.3972 A-Award A 2,108.2221 99.61 210,000.00
2022-04-25 ROGERS BRIAN C director 23,841.0155 A-Award A 3,363.1162 99.61 335,000.00
2022-04-25 Work Robert O director 10,110.6129 A-Award A 2,198.5744 99.61 219,000.00
2022-03-25 Azevedo Roy officer: President, RIS 54,425.0 F-InKind D 2,522.0 102.43 258,328.46
2022-03-25 DaSilva Kevin G officer: Corporate VP and Treasurer 44,560.0 F-InKind D 692.0 102.43 70,881.56
2022-03-25 Kremer Wesley D officer: President, RMD 67,016.0 F-InKind D 2,452.0 102.43 251,158.36
2022-03-21 Azevedo Roy officer: President, RIS 56,947.0 F-InKind D 1,638.0 99.94 163,701.72
2022-03-21 Azevedo Roy officer: President, RIS 58,585.0 F-InKind D 461.0 99.94 46,072.34
2022-03-21 DaSilva Kevin G officer: Corporate VP and Treasurer 45,252.0 F-InKind D 566.0 99.94 56,566.04
2022-03-21 DaSilva Kevin G officer: Corporate VP and Treasurer 45,818.0 F-InKind D 384.0 99.94 38,376.96
2022-03-21 Kremer Wesley D officer: President, RMD 69,468.0 F-InKind D 2,079.0 99.94 207,775.26
2022-03-21 Kremer Wesley D officer: President, RMD 71,547.0 F-InKind D 1,972.0 99.94 197,081.68
2022-03-15 Williams Dantaya M officer: EVP & Chief HR Officer 888.1377 A-Award A 888.1377 97.62 86,700.00
2022-02-28 Dumais Michael R officer: EVP,Chf Transformation Officer 0.0 M-Exempt D 13,814.0 83.58 1,154,574.12
2022-02-28 Dumais Michael R officer: EVP,Chf Transformation Officer 13,814.0 M-Exempt D 13,000.0 83.58 1,086,540.00
2022-02-28 Dumais Michael R officer: EVP,Chf Transformation Officer 62,390.0 D-Return D 11,371.0 101.53 1,154,497.63
2022-02-28 Dumais Michael R officer: EVP,Chf Transformation Officer 73,761.0 S-Sale D 5,000.0 101.43 507,170.00
2022-02-28 Dumais Michael R officer: EVP,Chf Transformation Officer 78,761.0 S-Sale D 2,443.0 101.48 247,925.41
2022-02-28 Dumais Michael R officer: EVP,Chf Transformation Officer 81,204.0 M-Exempt A 13,814.0 83.58 1,154,574.12
2022-02-25 Dumais Michael R officer: EVP,Chf Transformation Officer 67,390.0 D-Return D 11,117.0 97.73 1,086,464.41
2022-02-25 Dumais Michael R officer: EVP,Chf Transformation Officer 78,507.0 S-Sale D 5,000.0 97.73 488,655.00
2022-02-25 Dumais Michael R officer: EVP,Chf Transformation Officer 83,507.0 S-Sale D 1,883.0 97.76 184,083.96
2022-02-25 Dumais Michael R officer: EVP,Chf Transformation Officer 85,390.0 M-Exempt A 13,000.0 83.58 1,086,540.00
2022-02-18 Atkinson Tracy A director 6,880.0 S-Sale D 5,340.0 93.63 499,991.68
2022-02-17 Kremer Wesley D officer: President, RMD 96,700.0 A-Award D 96,700.0 94.04 9,093,668.00
2022-02-17 Kremer Wesley D officer: President, RMD 73,519.0 S-Sale D 15,083.0 93.92 1,416,655.69
2022-02-15 Azevedo Roy officer: President, RIS 96,700.0 A-Award A 96,700.0 94.04 9,093,668.00
2022-02-15 Calio Christopher T. officer: President, P&W 135,400.0 A-Award A 135,400.0 94.04 12,733,016.00
2022-02-15 DaSilva Kevin G officer: Corporate VP and Treasurer 5,800.0 A-Award A 5,800.0 94.04 545,432.00
2022-02-15 DaSilva Kevin G officer: Corporate VP and Treasurer 13,318.0 A-Award A 3,195.0 0.00 0.00
2022-02-15 HAYES GREGORY director, officer: Chairman and CEO 294,900.0 A-Award A 294,900.0 94.04 27,732,396.00
2022-02-15 Johnson Amy L officer: Corporate VP and Controller 5,800.0 A-Award A 5,800.0 94.04 545,432.00
2022-02-15 Johnson Amy L officer: Corporate VP and Controller 7,446.0 A-Award A 3,195.0 0.00 0.00
2022-02-15 Maharajh Ramsaran officer: EVP and General Counsel 53,200.0 A-Award A 53,200.0 94.04 5,002,928.00
2022-02-15 Mitchill Neil G. JR officer: EVP, Chief Financial Officer 77,400.0 A-Award A 77,400.0 94.04 7,278,696.00
2022-02-15 Timm Stephen J. officer: President, Collins Aerospace 96,700.0 A-Award A 96,700.0 94.04 9,093,668.00
2022-02-15 Williams Dantaya M officer: EVP & Chief HR Officer 48,400.0 A-Award A 48,400.0 94.04 4,551,536.00
2022-02-05 Dumais Michael R officer: EVP,Chf Transformation Officer 56,110.0 M-Exempt D 26,410.0 0.00 0.00
2022-02-05 Dumais Michael R officer: EVP,Chf Transformation Officer 82,520.0 M-Exempt D 15,046.0 0.00 0.00
2022-02-05 Dumais Michael R officer: EVP,Chf Transformation Officer 72,390.0 F-InKind D 9,682.0 93.01 900,522.82
2022-02-05 Dumais Michael R officer: EVP,Chf Transformation Officer 82,072.0 F-InKind D 6,758.0 93.01 628,561.58
2022-02-05 Dumais Michael R officer: EVP,Chf Transformation Officer 88,830.0 M-Exempt A 15,046.0 0.00 0.00
2022-02-05 Dumais Michael R officer: EVP,Chf Transformation Officer 73,784.0 M-Exempt A 26,410.0 0.00 0.00
2022-02-05 HAYES GREGORY director, officer: Chairman and CEO 119,396.0 M-Exempt D 114,320.0 0.00 0.00
2022-02-05 HAYES GREGORY director, officer: Chairman and CEO 397,080.0 F-InKind D 46,816.0 93.01 4,354,356.16
2022-02-05 HAYES GREGORY director, officer: Chairman and CEO 443,896.0 M-Exempt A 114,320.0 0.00 0.00
2022-02-05 Johnson Amy L officer: Corporate VP and Controller 4,251.0 M-Exempt D 2,460.0 0.00 0.00
2022-02-05 Johnson Amy L officer: Corporate VP and Controller 6,711.0 M-Exempt D 1,028.0 0.00 0.00
2022-02-05 Johnson Amy L officer: Corporate VP and Controller 6,399.0 F-InKind D 827.0 93.01 76,919.27
2022-02-05 Johnson Amy L officer: Corporate VP and Controller 7,226.0 F-InKind D 323.0 93.01 30,042.23
2022-02-05 Johnson Amy L officer: Corporate VP and Controller 7,549.0 M-Exempt A 1,028.0 0.00 0.00
2022-02-05 Johnson Amy L officer: Corporate VP and Controller 6,521.0 M-Exempt A 2,460.0 0.00 0.00
2022-02-05 Maharajh Ramsaran officer: EVP and General Counsel 25,381.0 M-Exempt D 2,561.0 0.00 0.00
2022-02-05 Maharajh Ramsaran officer: EVP and General Counsel 27,942.0 M-Exempt D 1,559.0 0.00 0.00
2022-02-05 Maharajh Ramsaran officer: EVP and General Counsel 5,197.0 F-InKind D 743.0 93.01 69,106.43
2022-02-05 Maharajh Ramsaran officer: EVP and General Counsel 5,940.0 F-InKind D 452.0 93.01 42,040.52
2022-02-05 Maharajh Ramsaran officer: EVP and General Counsel 6,392.0 M-Exempt A 1,559.0 0.00 0.00
2022-02-05 Maharajh Ramsaran officer: EVP and General Counsel 4,833.0 M-Exempt A 2,561.0 0.00 0.00
2022-02-05 Mitchill Neil G. JR officer: EVP, Chief Financial Officer 39,362.0 M-Exempt D 15,046.0 0.00 0.00
2022-02-05 Mitchill Neil G. JR officer: EVP, Chief Financial Officer 54,408.0 M-Exempt D 10,287.0 0.00 0.00
2022-02-05 Mitchill Neil G. JR officer: EVP, Chief Financial Officer 29,675.0 F-InKind D 5,501.0 93.01 511,648.01
2022-02-05 Mitchill Neil G. JR officer: EVP, Chief Financial Officer 35,176.0 F-InKind D 4,770.0 93.01 443,657.70
2022-02-05 Mitchill Neil G. JR officer: EVP, Chief Financial Officer 39,946.0 M-Exempt A 10,287.0 0.00 0.00
2022-02-05 Mitchill Neil G. JR officer: EVP, Chief Financial Officer 29,659.0 M-Exempt A 15,046.0 0.00 0.00
2022-02-05 Timm Stephen J. officer: President, Collins Aerospace 37,411.0 M-Exempt D 2,600.0 0.00 0.00
2022-02-05 Timm Stephen J. officer: President, Collins Aerospace 40,011.0 M-Exempt D 1,895.0 0.00 0.00
2022-02-05 Timm Stephen J. officer: President, Collins Aerospace 6,267.0 F-InKind D 728.0 93.01 67,711.28
2022-02-05 Timm Stephen J. officer: President, Collins Aerospace 6,995.0 F-InKind D 531.0 93.01 49,388.31
2022-02-05 Timm Stephen J. officer: President, Collins Aerospace 7,526.0 M-Exempt A 1,895.0 0.00 0.00
2022-02-05 Timm Stephen J. officer: President, Collins Aerospace 5,631.0 M-Exempt A 2,600.0 0.00 0.00
2022-02-05 Williams Dantaya M officer: EVP & Chief HR Officer 22,778.0 M-Exempt D 1,415.0 0.00 0.00
2022-02-05 Williams Dantaya M officer: EVP & Chief HR Officer 24,193.0 M-Exempt D 1,070.0 0.00 0.00
2022-02-05 Williams Dantaya M officer: EVP & Chief HR Officer 8,013.0015 F-InKind D 492.0 93.01 45,760.92
2022-02-05 Williams Dantaya M officer: EVP & Chief HR Officer 8,505.0015 F-InKind D 335.0 93.01 31,158.35
2022-02-05 Williams Dantaya M officer: EVP & Chief HR Officer 8,840.0015 M-Exempt A 1,070.0 0.00 0.00
2022-02-05 Williams Dantaya M officer: EVP & Chief HR Officer 7,770.0015 M-Exempt A 1,415.0 0.00 0.00
2022-02-05 Ortberg Robert Kelly director 0.0 M-Exempt D 53,083.0 0.00 0.00
2022-02-05 Ortberg Robert Kelly director 137,569.507 F-InKind D 18,028.0 93.01 1,676,784.28
2022-02-05 Ortberg Robert Kelly director 155,597.507 M-Exempt A 53,083.0 0.00 0.00
2022-01-31 DaSilva Kevin G officer: Corporate VP and Treasurer 10,123.0 M-Exempt D 6,787.0 0.00 0.00
2022-01-31 DaSilva Kevin G officer: Corporate VP and Treasurer 46,202.0 F-InKind D 2,050.0 90.19 184,889.50
2022-01-31 Kremer Wesley D officer: President, RMD 53,328.0 M-Exempt D 23,348.0 0.00 0.00
2022-01-31 Kremer Wesley D officer: President, RMD 88,602.0 F-InKind D 8,265.0 90.19 745,420.35
2022-01-31 Azevedo Roy officer: President, RIS 53,381.0 M-Exempt D 18,923.0 0.00 0.00
2022-01-31 Azevedo Roy officer: President, RIS 59,046.0 F-InKind D 6,519.0 90.19 587,948.61
2022-01-30 DaSilva Kevin G officer: Corporate VP and Treasurer 48,252.0 M-Exempt A 6,787.0 0.00 0.00
2022-01-30 Kremer Wesley D officer: President, RMD 96,867.0 M-Exempt A 23,348.0 0.00 0.00
2022-01-30 Azevedo Roy officer: President, RIS 65,565.0 M-Exempt A 18,923.0 0.00 0.00
2021-12-07 Maharajh Ramsaran officer: EVP and General Counsel 29,445.0 A-Award A 17,650.0 0.00 0.00
2021-11-05 Dumais Michael R officer: EVP,Chf Transformation Officer 47,374.0 S-Sale D 3,000.0 90.54 271,623.00

Disclaimer: The data contained in this website is not necessarily real-time nor accurate. All derived (stocks, indexes, futures), cryptocurrencies, and Forex prices are not provided by exchanges but rather by our third party API www.financialmodellingprep.com, and so prices may not be accurate and may differ from the actual market price, meaning prices are indicative and not appropriate for trading purposes. Therefore, Discounting Cash Flows Group doesn't bear any responsibility for any trading losses you might incur as a result of using this data. Discounting Cash Flows Group or anyone involved with Discounting Cash Flows Group will not accept any liability for loss or damage as a result of reliance on the information including data, quotes, charts and buy/sell signals contained within this website. Please be fully informed regarding the risks and costs associated with trading the financial markets, it is one of the riskiest investment forms possible.